This is the latest recevied weather packets stored in our database for station/object OE3MHU-13. If no packets are shown the sender has not sent any weather packets the latest 10 day(s).
| Time | Temp. | Humidity | Pressure | Rain* | Wind** | Luminosity | Snow |
|---|---|---|---|---|---|---|---|
| 1778174423 | 15.56° C | 78% | 1014.7 hPa | 0 mm | - | - | - |
| 1778174118 | 15.56° C | 78% | 1014.6 hPa | 0 mm | - | - | - |
| 1778173811 | 15.56° C | 77% | 1014.4 hPa | 0 mm | - | - | - |
| 1778173504 | 15.56° C | 77% | 1014.4 hPa | 0 mm | - | - | - |
| 1778173200 | 15° C | 79% | 1014.3 hPa | 0 mm | - | - | - |
| 1778172893 | 15° C | 79% | 1014.4 hPa | 0.25 mm | - | - | - |
| 1778172589 | 15° C | 80% | 1014.4 hPa | 0.25 mm | - | - | - |
| 1778172281 | 15° C | 82% | 1014.4 hPa | 2.29 mm | - | - | - |
| 1778171975 | 15° C | 81% | 1014.3 hPa | 2.29 mm | - | - | - |
| 1778171669 | 15° C | 80% | 1014.3 hPa | 2.29 mm | - | - | - |
| 1778171363 | 15.56° C | 79% | 1014.3 hPa | 2.29 mm | - | - | - |
| 1778171199 | 15.56° C | 78% | 1014.2 hPa | 2.29 mm | - | - | - |
| 1778171061 | 15.56° C | 78% | 1014.2 hPa | 2.29 mm | - | - | - |
| 1778170751 | 15.56° C | 77% | 1014.1 hPa | 2.29 mm | - | - | - |
| 1778170445 | 15.56° C | 75% | 1014 hPa | 2.29 mm | - | - | - |
| 1778170139 | 15.56° C | 74% | 1014 hPa | 2.29 mm | - | - | - |
| 1778169833 | 16.11° C | 72% | 1013.9 hPa | 2.29 mm | - | - | - |
| 1778169528 | 16.67° C | 65% | 1013.8 hPa | 2.29 mm | - | - | - |
| 1778169224 | 16.11° C | 66% | 1013.8 hPa | 2.29 mm | - | - | - |
| 1778168916 | 17.22° C | 58% | 1014.3 hPa | 2.03 mm | - | - | - |
| 1778168609 | 18.33° C | 62% | 1014.2 hPa | 0.25 mm | - | - | - |
| 1778168304 | 19.44° C | 56% | 1014 hPa | 0 mm | - | - | - |
| 1778167997 | 20° C | 52% | 1013.7 hPa | 0 mm | - | - | - |
| 1778167692 | 20° C | 51% | 1013.6 hPa | 0 mm | - | - | - |
| 1778167386 | 20.56° C | 50% | 1013.5 hPa | 0 mm | - | - | - |
* Rain latest hour (hover to see other rain measurements)
** Current wind speed in m/s (hover to see current wind gust speed)